Accueil
Images satellite Prévisions 10 joursClimatMétéo marine Cyclones Foudre AéroportsFAQ Actualités A propos
Météo : Europe Afrique Amérique du Nord Amérique du Sud Asie Australie-Océanie Autres
Langues Contact

Coxyde, Belgique

Base aérienne de Coxyde

latitude: 51-05N, longitude: 002-39E, altitude: 4 m


METAR: EBFN 260925Z 28009KT 9999 SCT012 BKN030 13/10 Q1007 GRN
TAF: EBFN 260849Z 2610/2619 01015KT 9999 SCT012 BKN015 TEMPO 2610/2619 6000 -RA SCT008 BKN012 BY EBWM

Heure: 11:41 (09:41 UTC)

Observation

Le bulletin a été fait il y a 16 minutes, à 09:25 UTC
Vent 9 kt de ouest
Température 13°C
Humidité 82%
Pression 1007 hPa
Visibilité 10 km ou plus
Nuages épars à une hauteur de 1200 ft
Nuages fragmentés à une hauteur de 3000 ft

Changer d'unités

Prévision

Le bulletin a été fait il y a 52 minutes, à 08:49 UTC
Prévision valable du 26 à 10 UTC au 26 à 19 UTC
Vent 15 kt de nord
Visibilité 10 km ou plus
Nuages épars à une hauteur de 1200 ft
Nuages fragmentés à une hauteur de 1500 ft
Temporairement
du 26 à 10 UTC au 26 à 19 UTC
Visibilité: 6000 m
Nuages épars à une hauteur de 800 ft
Nuages fragmentés à une hauteur de 1200 ft
pluie faible
Les informations qui figurent sur ce site font l'objet d'une clause de non-responsabilité
Météo : Europe Afrique Amérique du Nord Amérique du Sud Asie Australie-Océanie Autres
Images satellite Prévisions 10 joursClimatMétéo marine Cyclones Foudre AéroportsFAQ Langues Contact Actualités A propos